createdAt,value
2022-11-04T00:00:17.109Z,7.67
2022-11-04T00:01:17.057Z,7.67
2022-11-04T00:02:17.181Z,7.78
2022-11-04T00:03:17.067Z,7.94
2022-11-04T00:04:17.055Z,7.94
2022-11-04T00:05:17.062Z,7.67
2022-11-04T00:06:17.066Z,7.94
2022-11-04T00:07:17.065Z,7.94
2022-11-04T00:08:17.068Z,7.78
2022-11-04T00:09:17.059Z,8.11
2022-11-04T00:10:17.064Z,7.78
2022-11-04T00:11:17.069Z,8.11
2022-11-04T00:12:17.064Z,8.11
2022-11-04T00:13:17.067Z,7.94
2022-11-04T00:14:17.070Z,8.11
2022-11-04T00:15:17.077Z,8.28
2022-11-04T00:16:17.076Z,8.11
2022-11-04T00:17:17.070Z,8.28
2022-11-04T00:18:17.093Z,8.11
2022-11-04T00:19:17.071Z,8.39
2022-11-04T00:20:17.076Z,8.28
2022-11-04T00:21:17.078Z,8.11
2022-11-04T00:22:17.086Z,8.11
2022-11-04T00:23:17.082Z,7.78
2022-11-04T00:24:17.074Z,7.94
2022-11-04T00:25:17.069Z,7.94
2022-11-04T00:26:17.083Z,8.28
2022-11-04T00:27:17.087Z,7.78
2022-11-04T00:28:17.080Z,7.94
2022-11-04T00:29:17.084Z,7.78
2022-11-04T00:30:17.079Z,8.11
2022-11-04T00:31:17.085Z,7.78
2022-11-04T00:32:17.082Z,7.67
2022-11-04T00:33:17.083Z,7.94
2022-11-04T00:34:17.112Z,7.94
2022-11-04T00:35:17.082Z,7.5
2022-11-04T00:36:17.095Z,7.5
2022-11-04T00:37:17.090Z,7.5
2022-11-04T00:38:17.092Z,7.5
2022-11-04T00:39:17.090Z,7.39
2022-11-04T00:40:17.088Z,7.5
2022-11-04T00:41:17.104Z,7.22
2022-11-04T00:42:17.095Z,7.5
2022-11-04T00:43:17.110Z,7.5
2022-11-04T00:44:17.107Z,7.5
2022-11-04T00:45:17.106Z,7.5
2022-11-04T00:46:17.106Z,7.39
2022-11-04T00:47:17.105Z,7.5
2022-11-04T00:48:17.110Z,7.78
2022-11-04T00:49:17.107Z,7.78
2022-11-04T00:50:17.135Z,7.39
2022-11-04T00:51:17.114Z,7.78
2022-11-04T00:52:17.114Z,7.67
2022-11-04T00:53:17.106Z,7.94
2022-11-04T00:54:17.120Z,7.94
2022-11-04T00:55:17.114Z,7.94
2022-11-04T00:56:17.121Z,7.78
2022-11-04T00:57:17.116Z,7.94
2022-11-04T00:58:17.128Z,7.94
2022-11-04T00:59:17.125Z,7.94
2022-11-04T01:00:17.127Z,7.94
2022-11-04T01:01:17.193Z,8.11
2022-11-04T01:02:17.230Z,7.94
2022-11-04T01:03:17.129Z,7.94
2022-11-04T01:04:17.122Z,7.94
2022-11-04T01:05:17.127Z,8.11
2022-11-04T01:06:17.148Z,8.11
2022-11-04T01:07:17.129Z,8.11
2022-11-04T01:08:17.131Z,7.94
2022-11-04T01:09:17.123Z,8.28
2022-11-04T01:10:17.149Z,8.28
2022-11-04T01:11:17.151Z,8.11
2022-11-04T01:12:17.133Z,8.11
2022-11-04T01:13:17.136Z,7.94
2022-11-04T01:14:17.142Z,7.94
2022-11-04T01:15:17.136Z,8.11
2022-11-04T01:16:17.258Z,8.28
2022-11-04T01:17:17.137Z,8.28
2022-11-04T01:18:17.143Z,7.94
2022-11-04T01:19:17.145Z,7.94
2022-11-04T01:20:17.134Z,7.67
2022-11-04T01:21:17.151Z,7.94
2022-11-04T01:22:17.159Z,8.28
2022-11-04T01:23:17.148Z,7.78
2022-11-04T01:24:17.146Z,7.67
2022-11-04T01:25:17.150Z,7.78
2022-11-04T01:26:17.149Z,7.78
2022-11-04T01:27:17.153Z,7.78
2022-11-04T01:28:17.159Z,7.94
2022-11-04T01:29:17.155Z,7.94
2022-11-04T01:30:17.166Z,7.94
2022-11-04T01:31:17.159Z,7.94
2022-11-04T01:32:17.161Z,8.11
2022-11-04T01:33:17.153Z,8.11
2022-11-04T01:34:17.165Z,7.94
2022-11-04T01:35:17.163Z,8.11
2022-11-04T01:36:17.164Z,7.78
2022-11-04T01:37:17.165Z,8.11
2022-11-04T01:38:17.189Z,7.94
2022-11-04T01:39:17.164Z,8.11
2022-11-04T01:40:17.158Z,7.94
2022-11-04T01:41:17.174Z,7.94
2022-11-04T01:42:17.170Z,7.78
2022-11-04T01:43:17.174Z,8.11
2022-11-04T01:44:17.170Z,7.94
2022-11-04T01:45:17.170Z,7.94
2022-11-04T01:46:17.179Z,8.11
2022-11-04T01:47:17.168Z,8.39
2022-11-04T01:48:17.174Z,8.39
2022-11-04T01:49:17.170Z,7.94
2022-11-04T01:50:17.181Z,8.39
2022-11-04T01:51:17.176Z,8.61
2022-11-04T01:52:17.167Z,8.5
2022-11-04T01:53:17.179Z,8.61
2022-11-04T01:54:17.199Z,8.39
2022-11-04T01:55:17.172Z,8.39
2022-11-04T01:56:17.179Z,8.39
2022-11-04T01:57:17.183Z,8.28
2022-11-04T01:58:17.181Z,7.94
2022-11-04T01:59:17.187Z,8.11
2022-11-04T02:00:17.181Z,8.11
2022-11-04T02:01:17.252Z,7.94
2022-11-04T02:02:17.288Z,7.94
2022-11-04T02:03:17.193Z,8.28
2022-11-04T02:04:17.170Z,8.11
2022-11-04T02:05:17.182Z,8.28
2022-11-04T02:06:17.186Z,8.11
2022-11-04T02:07:17.191Z,8.39
2022-11-04T02:08:17.184Z,8.39
2022-11-04T02:09:17.194Z,8.5
2022-11-04T02:10:17.205Z,8.78
2022-11-04T02:11:17.179Z,9.06
2022-11-04T02:12:17.180Z,9.22
2022-11-04T02:13:17.187Z,9.06
2022-11-04T02:14:17.224Z,8.78
2022-11-04T02:15:17.183Z,8.61
2022-11-04T02:16:17.193Z,9.22
2022-11-04T02:17:17.198Z,9.67
2022-11-04T02:18:17.190Z,10.11
2022-11-04T02:19:17.200Z,10.56
2022-11-04T02:20:17.195Z,11
2022-11-04T02:21:17.197Z,11.11
2022-11-04T02:22:17.196Z,11.28
2022-11-04T02:23:17.190Z,11.44
2022-11-04T02:24:17.191Z,11.44
2022-11-04T02:25:17.195Z,10.83
2022-11-04T02:26:17.221Z,11.11
2022-11-04T02:27:17.192Z,11.11
2022-11-04T02:28:17.209Z,11.11
2022-11-04T02:29:17.197Z,11.44
2022-11-04T02:30:17.204Z,11.44
2022-11-04T02:31:17.203Z,11
2022-11-04T02:32:17.203Z,10.56
2022-11-04T02:33:17.197Z,10.56
2022-11-04T02:34:17.201Z,10.39
2022-11-04T02:35:17.203Z,10.67
2022-11-04T02:36:17.204Z,10.83
2022-11-04T02:37:17.201Z,10.56
2022-11-04T02:38:17.211Z,10.11
2022-11-04T02:39:17.201Z,10.39
2022-11-04T02:40:17.203Z,10.39
2022-11-04T02:41:17.204Z,10.11
2022-11-04T02:42:17.226Z,9.78
2022-11-04T02:43:17.204Z,9.94
2022-11-04T02:44:17.214Z,10.11
2022-11-04T02:45:17.211Z,9.78
2022-11-04T02:46:17.210Z,9.94
2022-11-04T02:47:17.196Z,9.5
2022-11-04T02:48:17.212Z,9.78
2022-11-04T02:49:17.210Z,9.78
2022-11-04T02:50:17.213Z,9.67
2022-11-04T02:51:17.204Z,9.5
2022-11-04T02:52:17.226Z,9.22
2022-11-04T02:53:17.213Z,8.94
2022-11-04T02:54:17.207Z,9.22
2022-11-04T02:55:17.216Z,9.22
2022-11-04T02:56:17.211Z,9.22
2022-11-04T02:57:17.214Z,9.22
2022-11-04T02:58:17.232Z,9.5
2022-11-04T02:59:17.211Z,9.67
2022-11-04T03:00:17.210Z,9.22
2022-11-04T03:01:17.308Z,9.06
2022-11-04T03:02:17.363Z,9.22
2022-11-04T03:03:17.203Z,9.22
2022-11-04T03:04:17.215Z,9.22
2022-11-04T03:05:17.211Z,8.94
2022-11-04T03:06:17.209Z,9.22
2022-11-04T03:07:17.222Z,9.06
2022-11-04T03:08:17.221Z,8.78
2022-11-04T03:09:17.216Z,9.06
2022-11-04T03:10:17.206Z,9.22
2022-11-04T03:11:17.215Z,9.06
2022-11-04T03:12:17.206Z,9.06
2022-11-04T03:13:17.217Z,9.22
2022-11-04T03:14:17.240Z,8.94
2022-11-04T03:15:17.224Z,9.06
2022-11-04T03:16:17.228Z,9.06
2022-11-04T03:17:17.231Z,8.94
2022-11-04T03:18:17.221Z,9.06
2022-11-04T03:19:17.219Z,8.94
2022-11-04T03:20:17.225Z,9.06
2022-11-04T03:21:17.238Z,8.94
2022-11-04T03:22:17.245Z,8.94
2022-11-04T03:23:17.233Z,9.06
2022-11-04T03:24:17.232Z,8.78
2022-11-04T03:25:17.233Z,8.94
2022-11-04T03:26:17.227Z,8.78
2022-11-04T03:27:17.237Z,9.06
2022-11-04T03:28:17.236Z,8.78
2022-11-04T03:29:17.236Z,8.61
2022-11-04T03:31:17.249Z,8.78
2022-11-04T03:32:17.247Z,8.61
2022-11-04T03:33:17.239Z,8.39
2022-11-04T03:34:17.243Z,7.94
2022-11-04T03:35:17.236Z,8.11
2022-11-04T03:36:17.243Z,7.78
2022-11-04T03:37:17.248Z,7.67
2022-11-04T03:38:17.248Z,7.39
2022-11-04T03:39:17.249Z,7.11
2022-11-04T03:40:17.247Z,7.11
2022-11-04T03:41:17.254Z,7.11
2022-11-04T03:42:17.247Z,6.94
2022-11-04T03:43:17.253Z,7.11
2022-11-04T03:44:17.257Z,6.94
2022-11-04T03:45:17.257Z,7.22
2022-11-04T03:46:17.275Z,7.11
2022-11-04T03:47:17.266Z,7.5
2022-11-04T03:48:17.275Z,7.11
2022-11-04T03:49:17.265Z,7.39
2022-11-04T03:50:17.262Z,7.39
2022-11-04T03:51:17.259Z,7.39
2022-11-04T03:52:17.273Z,7.11
2022-11-04T03:53:17.313Z,7.39
2022-11-04T03:54:17.268Z,7.22
2022-11-04T03:55:17.283Z,6.94
2022-11-04T03:56:17.270Z,7.11
2022-11-04T03:57:17.279Z,6.78
2022-11-04T03:58:17.272Z,6.78
2022-11-04T03:59:17.270Z,6.67
2022-11-04T04:00:17.274Z,6.67
2022-11-04T04:01:17.377Z,6.94
2022-11-04T04:02:17.359Z,7.11
2022-11-04T04:03:17.281Z,6.94
2022-11-04T04:04:17.289Z,6.78
2022-11-04T04:05:18.677Z,6.67
2022-11-04T04:06:17.291Z,6.39
2022-11-04T04:07:17.290Z,6.67
2022-11-04T04:08:17.284Z,6.67
2022-11-04T04:09:17.289Z,6.78
2022-11-04T04:10:17.290Z,6.94
2022-11-04T04:11:17.293Z,6.78
2022-11-04T04:12:17.288Z,6.78
2022-11-04T04:13:17.289Z,6.67
2022-11-04T04:14:17.304Z,6.78
2022-11-04T04:15:17.297Z,6.67
2022-11-04T04:16:17.292Z,6.39
2022-11-04T04:17:17.294Z,6.67
2022-11-04T04:18:17.308Z,6.5
2022-11-04T04:19:17.292Z,6.67
2022-11-04T04:20:17.305Z,6.67
2022-11-04T04:21:17.307Z,6.67
2022-11-04T04:22:17.306Z,6.39
2022-11-04T04:23:17.313Z,6.5
2022-11-04T04:24:17.315Z,6.5
2022-11-04T04:25:17.308Z,6.67
2022-11-04T04:26:17.310Z,6.67
2022-11-04T04:27:17.316Z,6.78
2022-11-04T04:28:17.326Z,6.39
2022-11-04T04:29:17.315Z,6.67
2022-11-04T04:30:17.312Z,6.39
2022-11-04T04:31:17.316Z,6.39
2022-11-04T04:32:17.324Z,6.5
2022-11-04T04:33:17.329Z,6.5
2022-11-04T04:34:17.348Z,6.67
2022-11-04T04:35:17.326Z,6.22
2022-11-04T04:36:17.326Z,6.5
2022-11-04T04:37:17.329Z,6.67
2022-11-04T04:38:17.332Z,6.39
2022-11-04T04:39:17.336Z,6.39
2022-11-04T04:40:20.824Z,6.39
2022-11-04T04:41:17.344Z,6.39
2022-11-04T04:42:17.340Z,6.22
2022-11-04T04:43:17.341Z,6.39
2022-11-04T04:44:17.338Z,6.22
2022-11-04T04:45:17.339Z,6.06
2022-11-04T04:46:17.341Z,6.06
2022-11-04T04:47:17.341Z,6.39
2022-11-04T04:48:17.342Z,6.22
2022-11-04T04:49:17.342Z,6.22
2022-11-04T04:50:17.358Z,6.22
2022-11-04T04:51:17.336Z,6.22
2022-11-04T04:52:17.343Z,6.06
2022-11-04T04:53:17.349Z,6.06
2022-11-04T04:54:17.341Z,6.06
2022-11-04T04:55:17.351Z,6.22
2022-11-04T04:56:17.357Z,5.78
2022-11-04T04:57:17.355Z,6.06
2022-11-04T04:58:17.344Z,6.06
2022-11-04T04:59:17.351Z,6.22
2022-11-04T05:00:17.369Z,6.22
2022-11-04T05:01:17.481Z,5.78
2022-11-04T05:02:17.488Z,5.78
2022-11-04T05:03:17.351Z,5.94
2022-11-04T05:04:17.361Z,6.06
2022-11-04T05:05:17.389Z,5.94
2022-11-04T05:06:17.386Z,5.94
2022-11-04T05:07:17.368Z,5.67
2022-11-04T05:08:17.360Z,6.06
2022-11-04T05:09:17.367Z,6.06
2022-11-04T05:10:17.375Z,5.56
2022-11-04T05:11:18.254Z,5.67
2022-11-04T05:12:17.376Z,5.78
2022-11-04T05:13:17.373Z,5.67
2022-11-04T05:14:17.384Z,5.78
2022-11-04T05:15:17.384Z,5.78
2022-11-04T05:16:17.394Z,5.67
2022-11-04T05:17:17.389Z,5.67
2022-11-04T05:18:17.394Z,5.56
2022-11-04T05:19:17.384Z,5.78
2022-11-04T05:20:17.390Z,5.67
2022-11-04T05:21:17.395Z,5.78
2022-11-04T05:22:17.416Z,5.78
2022-11-04T05:23:17.386Z,5.56
2022-11-04T05:24:17.393Z,5.67
2022-11-04T05:25:17.399Z,5.67
2022-11-04T05:26:17.396Z,5.78
2022-11-04T05:27:17.403Z,5.78
2022-11-04T05:28:17.397Z,5.56
2022-11-04T05:29:17.400Z,5.78
2022-11-04T05:30:17.397Z,5.22
2022-11-04T05:31:17.396Z,5.39
2022-11-04T05:32:17.403Z,5.78
2022-11-04T05:33:17.398Z,5.78
2022-11-04T05:34:17.408Z,5.67
2022-11-04T05:35:17.412Z,5.78
2022-11-04T05:36:17.397Z,5.22
2022-11-04T05:37:17.411Z,5.67
2022-11-04T05:38:17.435Z,5.78
2022-11-04T05:39:17.420Z,5.78
2022-11-04T05:40:17.409Z,5.39
2022-11-04T05:41:17.414Z,5.67
2022-11-04T05:42:17.420Z,5.67
2022-11-04T05:43:17.411Z,5.78
2022-11-04T05:44:17.406Z,5.78
2022-11-04T05:45:17.408Z,5.67
2022-11-04T05:46:17.425Z,5.56
2022-11-04T05:47:17.420Z,5.67
2022-11-04T05:48:17.417Z,5.78
2022-11-04T05:49:17.420Z,5.67
2022-11-04T05:50:17.419Z,5.78
2022-11-04T05:51:17.428Z,5.94
2022-11-04T05:52:17.434Z,5.67
2022-11-04T05:53:17.470Z,5.67
2022-11-04T05:54:17.438Z,5.78
2022-11-04T05:55:17.426Z,5.78
2022-11-04T05:56:17.424Z,5.39
2022-11-04T05:57:17.437Z,5.78
2022-11-04T05:58:17.418Z,5.78
2022-11-04T05:59:17.424Z,5.56
2022-11-04T06:00:17.431Z,5.67
2022-11-04T06:01:17.456Z,5.67
2022-11-04T06:02:17.566Z,5.22
2022-11-04T06:03:17.503Z,5.78
2022-11-04T06:04:17.421Z,5.22
2022-11-04T06:05:17.434Z,5.39
2022-11-04T06:06:17.437Z,5.67
2022-11-04T06:07:17.441Z,5.56
2022-11-04T06:08:17.438Z,5.56
2022-11-04T06:09:17.439Z,5.56
2022-11-04T06:10:17.460Z,5.56
2022-11-04T06:11:17.435Z,5.39
2022-11-04T06:12:17.440Z,5.67
2022-11-04T06:13:17.445Z,5.56
2022-11-04T06:14:18.658Z,5.39
2022-11-04T06:15:17.449Z,5.56
2022-11-04T06:16:17.451Z,5.22
2022-11-04T06:17:17.448Z,5.56
2022-11-04T06:18:17.454Z,5.56
2022-11-04T06:19:17.440Z,5.39
2022-11-04T06:20:17.470Z,5.39
2022-11-04T06:21:17.443Z,5.11
2022-11-04T06:22:17.443Z,5.39
2022-11-04T06:23:17.442Z,5.39
2022-11-04T06:24:17.442Z,5.39
2022-11-04T06:25:17.443Z,5.67
2022-11-04T06:26:18.256Z,5.39
2022-11-04T06:27:17.440Z,5.56
2022-11-04T06:28:17.458Z,5.22
2022-11-04T06:29:17.452Z,5.39
2022-11-04T06:30:17.458Z,5.39
2022-11-04T06:31:17.456Z,5.39
2022-11-04T06:32:17.457Z,5.39
2022-11-04T06:33:17.458Z,5.22
2022-11-04T06:34:17.452Z,5.22
2022-11-04T06:35:17.453Z,5.11
2022-11-04T06:36:17.458Z,5.11
2022-11-04T06:37:17.470Z,5.11
2022-11-04T06:38:17.466Z,5.22
2022-11-04T06:39:17.449Z,5.22
2022-11-04T06:40:17.457Z,5.56
2022-11-04T06:41:17.482Z,5.22
2022-11-04T06:42:17.492Z,5.22
2022-11-04T06:43:17.458Z,5.22
2022-11-04T06:44:17.463Z,5.22
2022-11-04T06:45:17.467Z,5.39
2022-11-04T06:46:17.473Z,5.39
2022-11-04T06:47:20.803Z,5.39
2022-11-04T06:48:17.474Z,5.56
2022-11-04T06:49:17.472Z,5.22
2022-11-04T06:50:17.465Z,5.11
2022-11-04T06:51:17.474Z,5.11
2022-11-04T06:52:17.466Z,5.22
2022-11-04T06:53:17.478Z,4.94
2022-11-04T06:54:17.485Z,5.22
2022-11-04T06:55:17.469Z,4.94
2022-11-04T06:56:17.474Z,4.67
2022-11-04T06:57:17.463Z,5.11
2022-11-04T06:58:17.493Z,4.94
2022-11-04T06:59:17.478Z,5.11
2022-11-04T07:00:17.489Z,5.11
2022-11-04T07:01:21.690Z,5.22
2022-11-04T07:02:17.605Z,5.22
2022-11-04T07:03:17.475Z,5.22
2022-11-04T07:04:17.482Z,5.39
2022-11-04T07:05:17.503Z,4.94
2022-11-04T07:06:17.494Z,4.94
2022-11-04T07:07:17.483Z,5.22
2022-11-04T07:08:17.500Z,5.11
2022-11-04T07:09:17.505Z,4.94
2022-11-04T07:10:17.499Z,4.94
2022-11-04T07:11:17.492Z,5.22
2022-11-04T07:12:17.490Z,5.11
2022-11-04T07:13:17.493Z,4.94
2022-11-04T07:14:17.515Z,5.11
2022-11-04T07:15:17.493Z,4.94
2022-11-04T07:16:17.494Z,5.39
2022-11-04T07:17:17.492Z,5.22
2022-11-04T07:18:17.495Z,5.11
2022-11-04T07:19:17.504Z,5.11
2022-11-04T07:20:17.497Z,4.83
2022-11-04T07:21:17.500Z,4.94
2022-11-04T07:22:17.503Z,4.83
2022-11-04T07:23:17.496Z,4.83
2022-11-04T07:24:17.516Z,4.94
2022-11-04T07:25:17.502Z,4.94
2022-11-04T07:26:17.505Z,4.94
2022-11-04T07:27:17.507Z,4.94
2022-11-04T07:28:17.509Z,4.94
2022-11-04T07:29:17.510Z,4.94
2022-11-04T07:30:17.529Z,4.94
2022-11-04T07:31:17.508Z,4.94
2022-11-04T07:32:17.516Z,4.94
2022-11-04T07:33:17.509Z,4.94
2022-11-04T07:34:17.512Z,4.67
2022-11-04T07:35:17.514Z,4.67
2022-11-04T07:36:17.520Z,4.83
2022-11-04T07:37:17.502Z,4.11
2022-11-04T07:38:17.519Z,4.5
2022-11-04T07:39:17.517Z,4.67
2022-11-04T07:40:17.510Z,4.83
2022-11-04T07:41:17.518Z,4.94
2022-11-04T07:42:17.524Z,4.83
2022-11-04T07:43:17.508Z,4.67
2022-11-04T07:44:17.515Z,4.94
2022-11-04T07:45:17.515Z,4.83
2022-11-04T07:46:17.535Z,4.94
2022-11-04T07:47:17.519Z,4.67
2022-11-04T07:48:17.511Z,4.5
2022-11-04T07:49:17.520Z,4.22
2022-11-04T07:50:17.541Z,4.22
2022-11-04T07:51:17.514Z,4.39
2022-11-04T07:52:17.522Z,4.11
2022-11-04T07:53:17.509Z,4.39
2022-11-04T07:54:17.515Z,4.11
2022-11-04T07:55:17.508Z,4.22
2022-11-04T07:56:17.520Z,4.11
2022-11-04T07:57:17.519Z,3.67
2022-11-04T07:58:17.528Z,4.11
2022-11-04T07:59:17.524Z,4.11
2022-11-04T08:00:17.511Z,3.78
2022-11-04T08:01:17.581Z,4.11
2022-11-04T08:02:20.926Z,3.94
2022-11-04T08:03:17.583Z,4.39
2022-11-04T08:04:17.525Z,4.5
2022-11-04T08:05:17.516Z,4.39
2022-11-04T08:06:17.517Z,4.39
2022-11-04T08:07:17.522Z,4.5
2022-11-04T08:08:17.528Z,4.22
2022-11-04T08:09:17.555Z,4.11
2022-11-04T08:10:17.532Z,4.22
2022-11-04T08:11:18.087Z,4.22
2022-11-04T08:12:17.529Z,4.39
2022-11-04T08:13:17.528Z,4.39
2022-11-04T08:14:17.531Z,4.5
2022-11-04T08:15:17.518Z,3.94
2022-11-04T08:16:17.520Z,4.11
2022-11-04T08:17:17.523Z,4.5
2022-11-04T08:18:17.553Z,4.5
2022-11-04T08:19:17.518Z,4.39
2022-11-04T08:20:17.525Z,4.39
2022-11-04T08:21:17.517Z,4.39
2022-11-04T08:22:17.530Z,4.39
2022-11-04T08:23:17.530Z,4.39
2022-11-04T08:24:17.528Z,4.5
2022-11-04T08:25:17.535Z,4.5
2022-11-04T08:26:17.536Z,4.5
2022-11-04T08:27:17.536Z,4.22
2022-11-04T08:28:17.847Z,4.5
2022-11-04T08:29:17.531Z,4.22
2022-11-04T08:30:17.539Z,4.39
2022-11-04T08:31:17.540Z,4.5
2022-11-04T08:32:17.534Z,4.5
2022-11-04T08:33:17.530Z,4.5
2022-11-04T08:34:17.577Z,4.5
2022-11-04T08:35:17.539Z,4.94
2022-11-04T08:36:17.540Z,4.5
2022-11-04T08:37:17.540Z,4.5
2022-11-04T08:38:17.543Z,4.5
2022-11-04T08:39:17.548Z,4.5
2022-11-04T08:40:17.534Z,4.5
2022-11-04T08:41:17.543Z,4.67
2022-11-04T08:42:17.541Z,4.5
2022-11-04T08:43:17.550Z,4.83
2022-11-04T08:44:17.543Z,4.67
2022-11-04T08:45:17.552Z,4.94
2022-11-04T08:46:17.544Z,4.67
2022-11-04T08:47:17.553Z,4.83
2022-11-04T08:48:17.552Z,4.83
2022-11-04T08:49:20.962Z,4.67
2022-11-04T08:50:17.580Z,4.83
2022-11-04T08:51:17.551Z,4.94
2022-11-04T08:52:17.567Z,4.5
2022-11-04T08:53:17.572Z,4.94
2022-11-04T08:54:17.563Z,4.94
2022-11-04T08:55:17.563Z,4.5
2022-11-04T08:56:17.581Z,5.22
2022-11-04T08:57:17.561Z,4.94
2022-11-04T08:58:17.574Z,4.5
2022-11-04T08:59:17.569Z,4.67
2022-11-04T09:00:17.566Z,4.5
2022-11-04T09:01:17.617Z,4.5
2022-11-04T09:02:17.590Z,4.67
2022-11-04T09:03:17.573Z,4.94
2022-11-04T09:04:17.635Z,4.83
2022-11-04T09:05:17.586Z,4.94
2022-11-04T09:06:17.607Z,4.94
2022-11-04T09:07:17.586Z,4.83
2022-11-04T09:08:17.592Z,4.94
2022-11-04T09:09:17.597Z,4.39
2022-11-04T09:10:17.592Z,4.5
2022-11-04T09:11:17.596Z,4.22
2022-11-04T09:12:17.596Z,4.22
2022-11-04T09:13:17.599Z,4.22
2022-11-04T09:14:17.599Z,4.39
2022-11-04T09:15:17.602Z,4.5
2022-11-04T09:16:17.604Z,4.39
2022-11-04T09:17:17.605Z,4.5
2022-11-04T09:18:17.612Z,4.11
2022-11-04T09:19:17.612Z,4.22
2022-11-04T09:20:17.607Z,4.5
2022-11-04T09:21:17.617Z,4.5
2022-11-04T09:22:17.724Z,4.5
2022-11-04T09:23:17.609Z,4.11
2022-11-04T09:24:17.618Z,4.11
2022-11-04T09:25:17.617Z,4.11
2022-11-04T09:26:17.619Z,4.11
2022-11-04T09:27:17.627Z,4.22
2022-11-04T09:28:17.622Z,4.39
2022-11-04T09:29:17.619Z,4.11
2022-11-04T09:30:17.617Z,4.39
2022-11-04T09:31:17.639Z,4.11
2022-11-04T09:32:17.623Z,4.39
2022-11-04T09:33:17.620Z,4.11
2022-11-04T09:34:17.611Z,4.22
2022-11-04T09:35:17.637Z,4.39
2022-11-04T09:36:17.648Z,3.78
2022-11-04T09:37:17.635Z,4.11
2022-11-04T09:38:17.759Z,4.39
2022-11-04T09:39:17.634Z,4.22
2022-11-04T09:40:17.638Z,3.78
2022-11-04T09:41:17.639Z,4.11
2022-11-04T09:42:17.644Z,3.78
2022-11-04T09:43:17.636Z,3.94
2022-11-04T09:44:17.651Z,4.11
2022-11-04T09:45:22.420Z,4.11
2022-11-04T09:46:17.642Z,4.11
2022-11-04T09:47:21.584Z,4.11
2022-11-04T09:48:17.645Z,3.78
2022-11-04T09:49:17.647Z,4.11
2022-11-04T09:50:17.653Z,3.78
2022-11-04T09:51:32.916Z,3.78
2022-11-04T09:52:17.654Z,3.78
2022-11-04T09:53:17.655Z,3.67
2022-11-04T09:54:17.761Z,3.56
2022-11-04T09:55:17.662Z,3.39
2022-11-04T09:56:17.657Z,3.56
2022-11-04T09:57:17.668Z,3.67
2022-11-04T09:58:17.713Z,3.67
2022-11-04T09:59:17.662Z,3.67
2022-11-04T10:00:17.766Z,3.56
2022-11-04T10:01:17.792Z,3.56
2022-11-04T10:02:21.796Z,3.39
2022-11-04T10:03:17.668Z,3.56
2022-11-04T10:04:17.659Z,3.39
2022-11-04T10:05:17.680Z,3.39
2022-11-04T10:06:17.662Z,3.11
2022-11-04T10:07:17.676Z,3.56
2022-11-04T10:08:17.670Z,3.78
2022-11-04T10:09:17.681Z,3.67
2022-11-04T10:10:17.824Z,3.67
2022-11-04T10:11:17.673Z,3.67
2022-11-04T10:12:17.674Z,3.67
2022-11-04T10:13:17.677Z,3.56
2022-11-04T10:14:17.690Z,3.67
2022-11-04T10:15:17.682Z,3.56
2022-11-04T10:16:17.689Z,3.67
2022-11-04T10:17:17.698Z,3.56
2022-11-04T10:18:17.694Z,3.56
2022-11-04T10:19:17.685Z,3.39
2022-11-04T10:20:17.691Z,3.67
2022-11-04T10:21:17.695Z,3.39
2022-11-04T10:22:17.693Z,3.56
2022-11-04T10:23:17.691Z,3.56
2022-11-04T10:24:17.700Z,3.39
2022-11-04T10:25:17.698Z,3.56
2022-11-04T10:26:17.810Z,3.39
2022-11-04T10:27:17.703Z,3.28
2022-11-04T10:28:17.695Z,3.39
2022-11-04T10:29:17.700Z,3.56
2022-11-04T10:30:17.699Z,3.39
2022-11-04T10:31:17.707Z,3.39
2022-11-04T10:32:22.017Z,3.28
2022-11-04T10:33:17.705Z,3.67
2022-11-04T10:34:17.699Z,3.39
2022-11-04T10:35:17.700Z,3.28
2022-11-04T10:36:17.701Z,3.39
2022-11-04T10:37:17.705Z,3.28
2022-11-04T10:38:17.719Z,3.28
2022-11-04T10:39:17.713Z,3.39
2022-11-04T10:40:17.709Z,3.56
2022-11-04T10:41:17.700Z,3.28
2022-11-04T10:42:17.809Z,3.39
2022-11-04T10:43:17.719Z,3.28
2022-11-04T10:44:17.721Z,3.28
2022-11-04T10:45:17.714Z,3.28
2022-11-04T10:46:17.716Z,3.28
2022-11-04T10:47:17.721Z,3.11
2022-11-04T10:48:17.720Z,3.11
2022-11-04T10:49:17.721Z,3.28
2022-11-04T10:50:33.116Z,3.28
2022-11-04T10:51:17.719Z,3.11
2022-11-04T10:52:22.105Z,3.28
2022-11-04T10:53:17.718Z,3.28
2022-11-04T10:54:17.727Z,3.28
2022-11-04T10:55:17.738Z,3.11
2022-11-04T10:56:17.785Z,3.28
2022-11-04T10:57:17.727Z,3.11
2022-11-04T10:58:17.735Z,3.28
2022-11-04T10:59:20.378Z,3.28
2022-11-04T11:00:17.768Z,3.11
2022-11-04T11:01:17.803Z,3.28
2022-11-04T11:02:17.752Z,2.83
2022-11-04T11:03:17.740Z,2.72
2022-11-04T11:04:17.747Z,3
2022-11-04T11:05:17.743Z,3
2022-11-04T11:06:17.738Z,2.83
2022-11-04T11:07:17.745Z,2.83
2022-11-04T11:08:17.746Z,3
2022-11-04T11:09:17.744Z,3
2022-11-04T11:10:17.777Z,3.11
2022-11-04T11:11:17.747Z,3
2022-11-04T11:12:44.601Z,2.56
2022-11-04T11:13:17.748Z,2.72
2022-11-04T11:14:17.759Z,2.83
2022-11-04T11:15:17.760Z,3
2022-11-04T11:16:17.815Z,2.39
2022-11-04T11:17:17.747Z,2.83
2022-11-04T11:18:17.757Z,2.83
2022-11-04T11:19:17.785Z,2.72
2022-11-04T11:20:17.761Z,2.83
2022-11-04T11:21:17.757Z,2.83
2022-11-04T11:22:17.768Z,2.72
2022-11-04T11:23:17.765Z,2.83
2022-11-04T11:24:17.763Z,2.72
2022-11-04T11:25:17.774Z,2.83
2022-11-04T11:26:17.767Z,2.28
2022-11-04T11:27:17.774Z,2.72
2022-11-04T11:28:17.770Z,2.72
2022-11-04T11:29:17.771Z,2.56
2022-11-04T11:30:17.776Z,2.39
2022-11-04T11:31:17.774Z,2.39
2022-11-04T11:32:17.796Z,2
2022-11-04T11:33:17.777Z,2.11
2022-11-04T11:34:17.777Z,2.11
2022-11-04T11:35:17.785Z,2
2022-11-04T11:36:17.779Z,1.83
2022-11-04T11:37:17.778Z,1.83
2022-11-04T11:38:17.788Z,2
2022-11-04T11:39:17.786Z,2.11
2022-11-04T11:40:17.785Z,2.11
2022-11-04T11:41:24.663Z,2
2022-11-04T11:42:17.780Z,2
2022-11-04T11:43:17.792Z,2
2022-11-04T11:44:17.783Z,1.83
2022-11-04T11:45:17.790Z,1.83
2022-11-04T11:46:17.799Z,2
2022-11-04T11:47:17.788Z,1.83
2022-11-04T11:48:17.810Z,1.72
2022-11-04T11:49:17.792Z,1.72
2022-11-04T11:50:17.793Z,1.11
2022-11-04T11:51:21.232Z,1.83
2022-11-04T11:52:17.799Z,2
2022-11-04T11:53:17.790Z,1.72
2022-11-04T11:54:17.796Z,1.83
2022-11-04T11:55:17.801Z,1.72
2022-11-04T11:56:17.804Z,2
2022-11-04T11:57:22.456Z,1.56
2022-11-04T12:01:22.291Z,1.56
2022-11-04T12:02:17.977Z,1.44
2022-11-04T12:03:18.516Z,1.44
2022-11-04T12:06:18.128Z,1.11
2022-11-04T12:09:18.370Z,1
2022-11-04T12:10:23.901Z,1
2022-11-04T12:11:17.800Z,0.83
2022-11-04T12:12:17.821Z,1.11
2022-11-04T12:13:23.468Z,0.72
2022-11-04T12:14:17.813Z,1
2022-11-04T12:15:17.816Z,1
2022-11-04T12:16:17.818Z,0.83
2022-11-04T12:17:17.821Z,1
2022-11-04T12:18:17.813Z,0.83
2022-11-04T12:19:17.799Z,0.72
2022-11-04T12:20:17.898Z,1.11
2022-11-04T12:21:17.807Z,1.28
2022-11-04T12:22:17.817Z,1.11
2022-11-04T12:23:17.824Z,1.11
2022-11-04T12:24:17.818Z,1.11
2022-11-04T12:25:17.820Z,0.83
2022-11-04T12:26:17.833Z,1
2022-11-04T12:27:17.816Z,0.44
2022-11-04T12:28:17.828Z,0.56
2022-11-04T12:29:17.817Z,0.56
2022-11-04T12:30:19.390Z,0.83
2022-11-04T12:31:17.821Z,0.44
2022-11-04T12:32:17.816Z,0.28
2022-11-04T12:33:17.818Z,0.83
2022-11-04T12:34:17.815Z,0.56
2022-11-04T12:35:17.813Z,0.56
2022-11-04T12:36:17.838Z,0.56
2022-11-04T12:37:17.816Z,0.56
2022-11-04T12:38:17.816Z,0.72
2022-11-04T12:39:17.825Z,0.56
2022-11-04T12:40:17.821Z,0.56
2022-11-04T12:41:37.850Z,0.56
2022-11-04T12:42:22.385Z,0.56
2022-11-04T12:43:17.817Z,0.44
2022-11-04T12:44:17.817Z,0.44
2022-11-04T12:45:17.825Z,0.56
2022-11-04T12:46:17.816Z,0.44
2022-11-04T12:47:17.826Z,0.83
2022-11-04T12:48:17.824Z,0.5
2022-11-04T12:49:17.833Z,0.56
2022-11-04T12:50:17.829Z,0.44
2022-11-04T12:51:17.826Z,0.56
2022-11-04T12:52:17.857Z,0.33
2022-11-04T12:53:17.824Z,0.61
2022-11-04T12:54:17.826Z,0.28
2022-11-04T12:55:17.836Z,0.44
2022-11-04T12:56:17.829Z,0.28
2022-11-04T12:57:17.835Z,0.28
2022-11-04T12:58:17.838Z,0.11
2022-11-04T12:59:17.832Z,0.33
2022-11-04T13:00:17.846Z,-0.06
2022-11-04T13:01:17.989Z,0.11
2022-11-04T13:02:18.019Z,0
2022-11-04T13:03:17.841Z,-0.06
2022-11-04T13:04:17.839Z,0.22
2022-11-04T13:05:17.841Z,0.11
2022-11-04T13:06:17.855Z,0.28
2022-11-04T13:07:17.848Z,0.39
2022-11-04T13:08:17.877Z,0.44
2022-11-04T13:09:17.864Z,0.44
2022-11-04T13:10:17.862Z,0.44
2022-11-04T13:11:17.867Z,0.61
2022-11-04T13:12:17.856Z,0.61
2022-11-04T13:13:17.863Z,0.56
2022-11-04T13:14:17.872Z,0.44
2022-11-04T13:15:17.870Z,0.44
2022-11-04T13:16:17.875Z,0.39
2022-11-04T13:17:17.874Z,0.56
2022-11-04T13:18:17.864Z,0.39
2022-11-04T13:19:17.872Z,0.28
2022-11-04T13:20:17.875Z,0
2022-11-04T13:21:17.876Z,0.22
2022-11-04T13:22:17.879Z,0
2022-11-04T13:23:17.895Z,0.11
2022-11-04T13:24:17.906Z,-0.28
2022-11-04T13:25:17.879Z,-0.17
2022-11-04T13:26:17.887Z,-0.17
2022-11-04T13:27:17.879Z,0
2022-11-04T13:28:17.883Z,0.17
2022-11-04T13:29:17.889Z,0.17
2022-11-04T13:30:17.883Z,0.28